createdAt,value
2023-04-04T00:02:14.897Z,83.03
2023-04-04T00:07:19.003Z,82.53
2023-04-04T00:12:24.784Z,84.13
2023-04-04T00:17:29.391Z,84.69
2023-04-04T00:22:36.318Z,85.88
2023-04-04T00:27:40.913Z,85.45
2023-04-04T00:32:45.520Z,86.06
2023-04-04T00:37:50.127Z,85.89
2023-04-04T00:42:55.379Z,85.78
2023-04-04T00:47:59.639Z,86.88
2023-04-04T00:53:05.433Z,87.88
2023-04-04T00:58:08.927Z,87.59
2023-04-04T01:03:12.700Z,87.32
2023-04-04T01:08:24.365Z,88.00
2023-04-04T01:13:30.066Z,87.27
2023-04-04T01:18:35.523Z,88.10
2023-04-04T01:24:01.194Z,87.96
2023-04-04T01:29:15.856Z,87.59
2023-04-04T01:34:28.977Z,89.71
2023-04-04T01:39:37.010Z,88.61
2023-04-04T01:44:41.692Z,87.93
2023-04-04T01:49:44.549Z,87.92
2023-04-04T01:54:49.630Z,87.60
2023-04-04T01:59:54.415Z,85.98
2023-04-04T02:04:57.142Z,88.01
2023-04-04T02:09:59.889Z,87.89
2023-04-04T02:15:04.193Z,88.54
2023-04-04T02:20:08.258Z,87.17
2023-04-04T02:25:10.918Z,88.39
2023-04-04T02:30:16.172Z,88.50
2023-04-04T02:35:19.553Z,89.57
2023-04-04T02:40:22.461Z,89.03
2023-04-04T02:45:26.670Z,89.62
2023-04-04T02:50:39.222Z,94.27
2023-04-04T02:55:43.260Z,94.57
2023-04-04T03:00:49.094Z,92.38
2023-04-04T03:05:52.759Z,92.42
2023-04-04T03:10:59.269Z,91.61
2023-04-04T03:16:07.540Z,91.13
2023-04-04T03:21:21.554Z,91.83
2023-04-04T03:26:24.559Z,92.01
2023-04-04T03:31:28.626Z,92.45
2023-04-04T03:36:31.615Z,95.79
2023-04-04T03:41:34.204Z,93.85
2023-04-04T03:46:38.157Z,92.90
2023-04-04T03:51:40.825Z,100.00
2023-04-04T03:56:43.531Z,96.20
2023-04-04T04:01:47.490Z,95.16
2023-04-04T04:06:50.120Z,94.60
2023-04-04T04:12:00.659Z,93.49
2023-04-04T04:17:24.632Z,92.58
2023-04-04T04:22:48.149Z,92.68
2023-04-04T04:28:12.302Z,93.69
2023-04-04T04:33:36.506Z,94.97
2023-04-04T04:39:00.609Z,93.45
2023-04-04T04:44:26.948Z,93.84
2023-04-04T04:49:52.833Z,94.54
2023-04-04T04:55:24.538Z,96.04
2023-04-04T05:00:38.733Z,94.96
2023-04-04T05:05:47.809Z,96.17
2023-04-04T05:10:53.082Z,96.46
2023-04-04T05:15:56.762Z,94.57
2023-04-04T05:21:02.495Z,100.00
2023-04-04T05:26:06.580Z,97.43
2023-04-04T05:31:14.823Z,97.12
2023-04-04T05:36:19.223Z,96.67
2023-04-04T05:41:30.235Z,95.76
2023-04-04T05:46:38.891Z,95.44
2023-04-04T05:51:46.713Z,95.75
2023-04-04T05:56:52.228Z,95.10
2023-04-04T06:02:21.099Z,96.17
2023-04-04T06:07:30.883Z,97.00
2023-04-04T06:12:33.558Z,97.56
2023-04-04T06:17:36.710Z,99.67
2023-04-04T06:22:41.729Z,99.88
2023-04-04T06:27:44.598Z,98.17
2023-04-04T06:32:48.218Z,99.75
2023-04-04T06:37:57.611Z,99.87
2023-04-04T06:43:02.294Z,99.97
2023-04-04T06:48:17.377Z,100.00
2023-04-04T06:53:24.144Z,100.00
2023-04-04T06:58:26.829Z,100.00
2023-04-04T07:03:29.573Z,99.46
2023-04-04T07:08:36.951Z,98.15
2023-04-04T07:13:39.857Z,97.31
2023-04-04T07:18:42.613Z,95.89
2023-04-04T07:23:46.993Z,94.37
2023-04-04T07:28:50.127Z,92.35
2023-04-04T07:33:53.847Z,91.36
2023-04-04T07:38:58.110Z,90.71
2023-04-04T07:44:00.830Z,90.01
2023-04-04T07:49:03.732Z,85.54
2023-04-04T07:54:08.289Z,85.60
2023-04-04T07:59:12.023Z,84.50
2023-04-04T08:04:18.192Z,82.32
2023-04-04T08:09:22.249Z,84.85
2023-04-04T08:14:24.849Z,82.71
2023-04-04T08:19:27.515Z,80.51
2023-04-04T08:24:32.040Z,79.22
2023-04-04T08:29:35.489Z,78.09
2023-04-04T08:34:38.339Z,76.37
2023-04-04T08:39:42.761Z,78.73
2023-04-04T08:44:49.675Z,76.93
2023-04-04T08:49:54.602Z,76.20
2023-04-04T08:55:02.192Z,76.75
2023-04-04T09:00:06.643Z,73.45
2023-04-04T09:05:10.698Z,76.18
2023-04-04T09:10:14.883Z,72.81
2023-04-04T09:15:17.947Z,73.43
2023-04-04T09:20:37.571Z,73.19
2023-04-04T09:30:56.436Z,70.73
2023-04-04T09:36:00.700Z,71.45
2023-04-04T09:41:07.829Z,70.72
2023-04-04T09:46:12.548Z,72.17
2023-04-04T09:51:15.127Z,73.58
2023-04-04T09:56:20.968Z,73.45
2023-04-04T10:01:25.608Z,76.38
2023-04-04T10:06:28.699Z,69.26
2023-04-04T10:11:34.071Z,71.46
2023-04-04T10:16:37.004Z,71.74
2023-04-04T10:21:40.162Z,71.54
2023-04-04T10:26:44.172Z,70.46
2023-04-04T10:31:49.989Z,69.82
2023-04-04T10:36:58.748Z,66.40
2023-04-04T10:42:06.625Z,68.57
2023-04-04T10:47:16.020Z,68.66
2023-04-04T10:52:20.909Z,71.36
2023-04-04T10:57:28.241Z,66.14
2023-04-04T11:02:48.265Z,67.50
2023-04-04T11:08:08.132Z,77.27
2023-04-04T11:13:17.011Z,70.19
2023-04-04T11:18:32.060Z,66.99
2023-04-04T11:24:16.581Z,68.20
2023-04-04T11:29:54.072Z,65.29
2023-04-04T11:57:07.304Z,59.14
2023-04-04T12:02:13.495Z,55.83
2023-04-04T12:07:18.688Z,60.44
2023-04-04T12:12:38.693Z,58.92
2023-04-04T12:17:42.068Z,58.13
2023-04-04T12:22:45.579Z,60.26
2023-04-04T12:27:50.748Z,57.46
2023-04-04T12:32:53.604Z,58.45
2023-04-04T12:38:01.852Z,55.43
2023-04-04T12:43:07.413Z,50.42
2023-04-04T12:48:14.205Z,57.93
2023-04-04T12:58:37.168Z,56.48
2023-04-04T13:03:45.327Z,49.85
2023-04-04T13:08:55.157Z,45.63
2023-04-04T13:14:06.445Z,52.92
2023-04-04T13:19:09.152Z,51.03
2023-04-04T13:24:11.851Z,50.41
2023-04-04T13:29:15.953Z,50.02
2023-04-04T13:34:19.862Z,53.89
2023-04-04T13:39:22.563Z,50.09
2023-04-04T13:44:27.332Z,52.29
2023-04-04T13:49:33.125Z,45.84
2023-04-04T13:54:36.817Z,45.45
2023-04-04T13:59:40.940Z,45.43
2023-04-04T14:04:43.573Z,49.05
2023-04-04T14:09:46.800Z,44.84
2023-04-04T14:14:50.983Z,52.20
2023-04-04T14:19:53.846Z,53.11
2023-04-04T14:24:56.494Z,44.49
2023-04-04T14:30:00.619Z,51.39
2023-04-04T14:35:03.427Z,50.12
2023-04-04T14:40:07.336Z,49.41
2023-04-04T14:45:12.628Z,47.31
2023-04-04T14:50:15.403Z,48.63
2023-04-04T14:55:21.042Z,55.12
2023-04-04T15:00:25.232Z,52.49
2023-04-04T15:05:31.026Z,58.67
2023-04-04T15:10:33.750Z,52.93
2023-04-04T15:37:41.434Z,50.85
2023-04-04T15:42:46.213Z,53.63
2023-04-04T15:47:48.958Z,56.13
2023-04-04T15:52:52.904Z,54.50
2023-04-04T15:57:55.785Z,47.77
2023-04-04T16:02:59.149Z,50.16
2023-04-04T16:08:06.497Z,53.87
2023-04-04T16:13:09.039Z,51.29
2023-04-04T16:18:11.620Z,50.04
2023-04-04T16:23:15.542Z,49.78
2023-04-04T16:28:18.352Z,50.76
2023-04-04T16:33:23.886Z,55.41
2023-04-04T16:38:28.027Z,56.71
2023-04-04T16:43:36.754Z,51.98
2023-04-04T16:48:39.454Z,54.76
2023-04-04T16:53:43.414Z,56.30
2023-04-04T16:58:46.658Z,54.44
2023-04-04T17:03:49.390Z,56.70
2023-04-04T17:08:53.408Z,55.78
2023-04-04T17:13:55.971Z,56.70
2023-04-04T17:18:58.489Z,60.58
2023-04-04T17:24:02.452Z,59.19
2023-04-04T17:29:05.348Z,60.92
2023-04-04T17:34:07.888Z,61.99
2023-04-04T17:39:11.749Z,62.09
2023-04-04T17:44:14.552Z,63.22
2023-04-04T17:49:23.674Z,63.56
2023-04-04T17:54:29.530Z,64.79
2023-04-04T17:59:32.161Z,67.69
2023-04-04T18:04:34.906Z,65.97
2023-04-04T18:09:39.225Z,66.35
2023-04-04T18:14:41.880Z,65.22
2023-04-04T18:19:44.415Z,66.90
2023-04-04T18:24:48.828Z,66.41
2023-04-04T18:29:51.415Z,65.61
2023-04-04T18:34:53.946Z,67.04
2023-04-04T18:39:57.830Z,66.46
2023-04-04T18:45:02.272Z,66.77
2023-04-04T18:50:05.608Z,67.32
2023-04-04T18:55:11.410Z,66.56
2023-04-04T19:00:16.423Z,65.70
2023-04-04T19:05:23.806Z,64.34
2023-04-04T19:10:28.405Z,64.42
2023-04-04T19:15:31.931Z,65.25
2023-04-04T19:20:34.722Z,66.58
2023-04-04T19:25:39.088Z,66.75
2023-04-04T19:30:44.156Z,67.78
2023-04-04T19:35:53.328Z,67.42
2023-04-04T19:40:59.869Z,67.49
2023-04-04T19:46:09.458Z,67.00
2023-04-04T19:51:33.646Z,69.24
2023-04-04T19:56:38.388Z,69.16
2023-04-04T20:01:47.491Z,70.62
2023-04-04T20:07:01.191Z,71.17
2023-04-04T20:12:09.246Z,69.60
2023-04-04T20:17:11.970Z,69.19
2023-04-04T20:22:16.235Z,69.29
2023-04-04T20:27:26.568Z,71.10
2023-04-04T20:32:29.584Z,72.12
2023-04-04T20:37:32.378Z,71.24
2023-04-04T20:42:40.957Z,73.14
2023-04-04T20:47:46.712Z,74.07
2023-04-04T20:52:51.299Z,73.17
2023-04-04T20:57:57.919Z,73.75
2023-04-04T21:03:02.712Z,73.45
2023-04-04T21:08:29.619Z,70.80
2023-04-04T21:13:36.559Z,72.57
2023-04-04T21:18:40.442Z,72.30
2023-04-04T21:23:49.174Z,72.72
2023-04-04T21:28:53.624Z,72.50
2023-04-04T21:33:58.092Z,72.01
2023-04-04T21:39:02.062Z,74.22
2023-04-04T21:44:07.868Z,71.43
2023-04-04T21:49:10.981Z,73.40
2023-04-04T21:54:14.267Z,73.95
2023-04-04T21:59:18.619Z,73.86
2023-04-04T22:04:21.256Z,73.87
2023-04-04T22:09:25.741Z,73.41
2023-04-04T22:14:29.885Z,75.33
2023-04-04T22:19:43.875Z,75.60
2023-04-04T22:24:46.418Z,75.40
2023-04-04T22:29:50.321Z,75.75
2023-04-04T22:34:53.107Z,75.22
2023-04-04T22:39:55.827Z,73.55
2023-04-04T22:44:59.709Z,74.13
2023-04-04T22:50:04.625Z,76.15
2023-04-04T22:55:07.713Z,77.68
2023-04-04T23:00:14.470Z,80.53
2023-04-04T23:05:18.588Z,80.23
2023-04-04T23:10:22.268Z,79.99
2023-04-04T23:15:29.974Z,82.16
2023-04-04T23:20:33.284Z,81.03
2023-04-04T23:25:35.844Z,80.99
2023-04-04T23:30:41.384Z,82.33
2023-04-04T23:35:44.219Z,82.79
2023-04-04T23:40:46.777Z,82.48
2023-04-04T23:45:51.372Z,82.42
2023-04-04T23:50:56.730Z,81.38
2023-04-04T23:55:59.396Z,80.52
